sensor_id;sensor_type;location;lat;lon;timestamp;temperature;humidity
1896;DHT22;1455;51.440;7.308;2022-09-30T07:01:31;10.00;99.90
1896;DHT22;1455;51.440;7.308;2022-09-30T07:04:24;10.00;99.90
1896;DHT22;1455;51.440;7.308;2022-09-30T07:07:16;10.10;99.90
1896;DHT22;1455;51.440;7.308;2022-09-30T07:10:10;10.10;99.90
1896;DHT22;1455;51.440;7.308;2022-09-30T07:13:43;10.10;99.90
1896;DHT22;1455;51.440;7.308;2022-09-30T07:16:32;10.20;99.90
1896;DHT22;1455;51.440;7.308;2022-09-30T07:19:24;10.30;99.90
1896;DHT22;1455;51.440;7.308;2022-09-30T07:22:10;10.30;99.90
1896;DHT22;1455;51.440;7.308;2022-09-30T07:25:15;10.40;99.90
1896;DHT22;1455;51.440;7.308;2022-09-30T07:28:08;10.40;99.90
1896;DHT22;1455;51.440;7.308;2022-09-30T07:30:56;10.50;99.90
1896;DHT22;1455;51.440;7.308;2022-09-30T07:33:50;10.60;99.90
1896;DHT22;1455;51.440;7.308;2022-09-30T07:36:41;10.60;99.90
1896;DHT22;1455;51.440;7.308;2022-09-30T07:39:29;10.70;99.90
1896;DHT22;1455;51.440;7.308;2022-09-30T07:42:18;10.70;99.90
1896;DHT22;1455;51.440;7.308;2022-09-30T07:45:06;10.70;99.90
1896;DHT22;1455;51.440;7.308;2022-09-30T07:47:56;10.80;99.90
1896;DHT22;1455;51.440;7.308;2022-09-30T07:50:42;10.80;99.90
1896;DHT22;1455;51.440;7.308;2022-09-30T07:53:30;10.90;99.90
1896;DHT22;1455;51.440;7.308;2022-09-30T07:56:17;10.90;99.90
1896;DHT22;1455;51.440;7.308;2022-09-30T07:59:16;10.90;99.90
1896;DHT22;1455;51.440;7.308;2022-09-30T08:02:07;11.00;99.90
1896;DHT22;1455;51.440;7.308;2022-09-30T08:04:58;11.00;99.90
1896;DHT22;1455;51.440;7.308;2022-09-30T08:07:44;11.10;99.90
1896;DHT22;1455;51.440;7.308;2022-09-30T08:10:35;11.10;99.90
1896;DHT22;1455;51.440;7.308;2022-09-30T08:13:21;11.10;99.90
1896;DHT22;1455;51.440;7.308;2022-09-30T08:16:08;11.20;99.90
1896;DHT22;1455;51.440;7.308;2022-09-30T08:18:54;11.30;99.90
1896;DHT22;1455;51.440;7.308;2022-09-30T08:21:40;11.30;99.90
1896;DHT22;1455;51.440;7.308;2022-09-30T08:24:26;11.40;99.90
1896;DHT22;1455;51.440;7.308;2022-09-30T08:27:16;11.40;99.90
1896;DHT22;1455;51.440;7.308;2022-09-30T08:30:02;11.50;99.90
1896;DHT22;1455;51.440;7.308;2022-09-30T08:32:51;11.60;99.90
1896;DHT22;1455;51.440;7.308;2022-09-30T08:35:40;11.70;99.90
1896;DHT22;1455;51.440;7.308;2022-09-30T08:38:26;11.80;99.90
1896;DHT22;1455;51.440;7.308;2022-09-30T08:44:33;11.90;99.90
1896;DHT22;1455;51.440;7.308;2022-09-30T08:47:41;12.00;99.90
1896;DHT22;1455;51.440;7.308;2022-09-30T08:50:32;12.10;99.90
1896;DHT22;1455;51.440;7.308;2022-09-30T08:53:24;12.20;99.90
1896;DHT22;1455;51.440;7.308;2022-09-30T08:56:22;12.20;99.90
1896;DHT22;1455;51.440;7.308;2022-09-30T08:59:15;12.30;99.90
1896;DHT22;1455;51.440;7.308;2022-09-30T09:02:19;12.50;99.90
1896;DHT22;1455;51.440;7.308;2022-09-30T09:05:09;12.70;99.90
1896;DHT22;1455;51.440;7.308;2022-09-30T09:08:02;13.00;99.90
1896;DHT22;1455;51.440;7.308;2022-09-30T09:10:54;13.30;99.90
1896;DHT22;1455;51.440;7.308;2022-09-30T09:13:49;13.60;99.90
1896;DHT22;1455;51.440;7.308;2022-09-30T09:16:40;13.90;99.90
1896;DHT22;1455;51.440;7.308;2022-09-30T09:19:32;14.20;99.90
1896;DHT22;1455;51.440;7.308;2022-09-30T09:22:21;14.40;99.90
1896;DHT22;1455;51.440;7.308;2022-09-30T09:25:12;14.60;99.90
1896;DHT22;1455;51.440;7.308;2022-09-30T09:28:00;14.80;99.90
1896;DHT22;1455;51.440;7.308;2022-09-30T09:30:57;15.00;99.90
1896;DHT22;1455;51.440;7.308;2022-09-30T09:33:47;15.20;99.90
1896;DHT22;1455;51.440;7.308;2022-09-30T09:36:46;15.40;99.90
1896;DHT22;1455;51.440;7.308;2022-09-30T09:40:02;15.60;99.90
1896;DHT22;1455;51.440;7.308;2022-09-30T09:42:57;15.80;99.90
1896;DHT22;1455;51.440;7.308;2022-09-30T09:45:50;16.00;99.90
1896;DHT22;1455;51.440;7.308;2022-09-30T09:48:39;16.20;99.90
1896;DHT22;1455;51.440;7.308;2022-09-30T09:51:27;16.20;99.90
1896;DHT22;1455;51.440;7.308;2022-09-30T09:54:19;16.30;99.90
1896;DHT22;1455;51.440;7.308;2022-09-30T09:57:06;16.30;99.90
1896;DHT22;1455;51.440;7.308;2022-09-30T09:59:57;16.30;99.90
1896;DHT22;1455;51.440;7.308;2022-09-30T10:02:43;16.50;99.90
1896;DHT22;1455;51.440;7.308;2022-09-30T10:05:30;16.60;99.90
1896;DHT22;1455;51.440;7.308;2022-09-30T10:08:22;16.70;99.90
1896;DHT22;1455;51.440;7.308;2022-09-30T10:11:22;16.80;99.90
1896;DHT22;1455;51.440;7.308;2022-09-30T10:14:08;16.90;99.90
1896;DHT22;1455;51.440;7.308;2022-09-30T10:17:03;17.00;99.90
1896;DHT22;1455;51.440;7.308;2022-09-30T10:19:51;17.10;99.90
1896;DHT22;1455;51.440;7.308;2022-09-30T10:22:38;17.30;99.90
1896;DHT22;1455;51.440;7.308;2022-09-30T10:25:25;17.40;99.90
1896;DHT22;1455;51.440;7.308;2022-09-30T10:28:24;17.50;99.90
1896;DHT22;1455;51.440;7.308;2022-09-30T10:31:11;17.60;99.90
1896;DHT22;1455;51.440;7.308;2022-09-30T10:34:00;17.60;99.90
1896;DHT22;1455;51.440;7.308;2022-09-30T10:36:47;17.60;99.90
1896;DHT22;1455;51.440;7.308;2022-09-30T10:39:34;17.60;99.90
1896;DHT22;1455;51.440;7.308;2022-09-30T10:42:22;17.60;99.90
1896;DHT22;1455;51.440;7.308;2022-09-30T10:45:19;17.60;99.90
1896;DHT22;1455;51.440;7.308;2022-09-30T10:48:12;17.60;99.90
1896;DHT22;1455;51.440;7.308;2022-09-30T10:51:04;17.70;99.90
1896;DHT22;1455;51.440;7.308;2022-09-30T10:53:50;17.80;99.90
1896;DHT22;1455;51.440;7.308;2022-09-30T10:56:42;17.70;99.90
1896;DHT22;1455;51.440;7.308;2022-09-30T10:59:32;17.70;99.90
1896;DHT22;1455;51.440;7.308;2022-09-30T11:02:24;17.80;99.90
1896;DHT22;1455;51.440;7.308;2022-09-30T11:05:14;17.90;99.90
1896;DHT22;1455;51.440;7.308;2022-09-30T11:08:29;18.00;99.90
1896;DHT22;1455;51.440;7.308;2022-09-30T11:11:19;18.00;99.90
1896;DHT22;1455;51.440;7.308;2022-09-30T11:14:17;18.00;99.90
1896;DHT22;1455;51.440;7.308;2022-09-30T11:17:08;17.90;99.90
1896;DHT22;1455;51.440;7.308;2022-09-30T11:20:06;17.80;99.90
1896;DHT22;1455;51.440;7.308;2022-09-30T21:55:48;14.00;99.90
1896;DHT22;1455;51.440;7.308;2022-09-30T21:58:35;14.00;99.90
1896;DHT22;1455;51.440;7.308;2022-09-30T22:01:26;14.00;99.90
1896;DHT22;1455;51.440;7.308;2022-09-30T22:04:13;14.00;99.90
1896;DHT22;1455;51.440;7.308;2022-09-30T22:07:03;13.90;99.90
1896;DHT22;1455;51.440;7.308;2022-09-30T22:09:50;13.90;99.90
1896;DHT22;1455;51.440;7.308;2022-09-30T22:12:40;13.90;99.90
1896;DHT22;1455;51.440;7.308;2022-09-30T22:15:26;13.90;99.90
1896;DHT22;1455;51.440;7.308;2022-09-30T22:18:14;13.90;99.90
1896;DHT22;1455;51.440;7.308;2022-09-30T22:21:05;13.90;99.90
1896;DHT22;1455;51.440;7.308;2022-09-30T22:23:51;14.00;99.90
1896;DHT22;1455;51.440;7.308;2022-09-30T22:26:37;14.00;99.90
1896;DHT22;1455;51.440;7.308;2022-09-30T22:29:25;14.00;99.90
1896;DHT22;1455;51.440;7.308;2022-09-30T22:32:10;14.00;99.90
1896;DHT22;1455;51.440;7.308;2022-09-30T22:34:56;14.00;99.90
1896;DHT22;1455;51.440;7.308;2022-09-30T22:37:59;14.00;99.90
1896;DHT22;1455;51.440;7.308;2022-09-30T22:40:59;14.10;99.90
1896;DHT22;1455;51.440;7.308;2022-09-30T22:43:46;14.10;99.90
1896;DHT22;1455;51.440;7.308;2022-09-30T22:46:33;14.10;99.90
1896;DHT22;1455;51.440;7.308;2022-09-30T22:49:19;14.10;99.90
1896;DHT22;1455;51.440;7.308;2022-09-30T22:52:05;14.10;99.90
1896;DHT22;1455;51.440;7.308;2022-09-30T22:54:53;14.10;99.90
1896;DHT22;1455;51.440;7.308;2022-09-30T22:57:39;14.10;99.90
1896;DHT22;1455;51.440;7.308;2022-09-30T23:00:24;14.10;99.90
1896;DHT22;1455;51.440;7.308;2022-09-30T23:03:12;14.10;99.90
1896;DHT22;1455;51.440;7.308;2022-09-30T23:06:01;14.10;99.90
1896;DHT22;1455;51.440;7.308;2022-09-30T23:08:48;14.10;99.90
1896;DHT22;1455;51.440;7.308;2022-09-30T23:11:35;14.10;99.90
1896;DHT22;1455;51.440;7.308;2022-09-30T23:14:22;14.10;99.90
1896;DHT22;1455;51.440;7.308;2022-09-30T23:17:08;14.20;99.90
1896;DHT22;1455;51.440;7.308;2022-09-30T23:19:55;14.10;99.90
1896;DHT22;1455;51.440;7.308;2022-09-30T23:22:41;14.10;99.90
1896;DHT22;1455;51.440;7.308;2022-09-30T23:25:28;14.10;99.90
1896;DHT22;1455;51.440;7.308;2022-09-30T23:28:14;14.10;99.90
1896;DHT22;1455;51.440;7.308;2022-09-30T23:31:01;14.10;99.90
1896;DHT22;1455;51.440;7.308;2022-09-30T23:33:49;14.10;99.90
1896;DHT22;1455;51.440;7.308;2022-09-30T23:36:37;14.10;99.90
1896;DHT22;1455;51.440;7.308;2022-09-30T23:39:23;14.10;99.90
1896;DHT22;1455;51.440;7.308;2022-09-30T23:42:08;14.10;99.90
1896;DHT22;1455;51.440;7.308;2022-09-30T23:44:54;14.10;99.90
1896;DHT22;1455;51.440;7.308;2022-09-30T23:47:39;14.10;99.90
1896;DHT22;1455;51.440;7.308;2022-09-30T23:50:30;14.00;99.90
1896;DHT22;1455;51.440;7.308;2022-09-30T23:53:18;14.10;99.90
1896;DHT22;1455;51.440;7.308;2022-09-30T23:56:06;14.10;99.90
1896;DHT22;1455;51.440;7.308;2022-09-30T23:58:52;14.00;99.90
